sensor_id;sensor_type;location;lat;lon;timestamp;P1;durP1;ratioP1;P2;durP2;ratioP2
7969;SDS011;4030;52.362;9.206;2023-08-24T00:00:52;1.83;;;1.10;;
7969;SDS011;4030;52.362;9.206;2023-08-24T00:03:18;1.42;;;1.15;;
7969;SDS011;4030;52.362;9.206;2023-08-24T00:05:46;1.95;;;1.10;;
7969;SDS011;4030;52.362;9.206;2023-08-24T00:08:12;1.40;;;1.10;;
7969;SDS011;4030;52.362;9.206;2023-08-24T00:10:38;2.25;;;1.25;;
7969;SDS011;4030;52.362;9.206;2023-08-24T00:13:04;1.65;;;1.02;;
7969;SDS011;4030;52.362;9.206;2023-08-24T00:15:30;1.40;;;1.20;;
7969;SDS011;4030;52.362;9.206;2023-08-24T00:17:56;1.80;;;1.20;;
7969;SDS011;4030;52.362;9.206;2023-08-24T00:20:22;1.40;;;1.13;;
7969;SDS011;4030;52.362;9.206;2023-08-24T00:22:48;1.67;;;1.00;;
7969;SDS011;4030;52.362;9.206;2023-08-24T00:25:13;1.70;;;1.10;;
7969;SDS011;4030;52.362;9.206;2023-08-24T00:27:39;1.40;;;1.00;;
7969;SDS011;4030;52.362;9.206;2023-08-24T00:30:06;2.00;;;1.20;;
7969;SDS011;4030;52.362;9.206;2023-08-24T00:32:33;2.63;;;1.10;;
7969;SDS011;4030;52.362;9.206;2023-08-24T00:35:00;1.40;;;1.00;;
7969;SDS011;4030;52.362;9.206;2023-08-24T00:37:27;1.38;;;1.00;;
7969;SDS011;4030;52.362;9.206;2023-08-24T00:39:53;1.08;;;1.02;;
7969;SDS011;4030;52.362;9.206;2023-08-24T00:42:20;1.40;;;1.20;;
7969;SDS011;4030;52.362;9.206;2023-08-24T00:44:47;2.10;;;1.10;;
7969;SDS011;4030;52.362;9.206;2023-08-24T00:47:14;1.95;;;1.20;;
7969;SDS011;4030;52.362;9.206;2023-08-24T00:49:41;1.50;;;1.25;;
7969;SDS011;4030;52.362;9.206;2023-08-24T00:52:07;2.38;;;1.23;;
7969;SDS011;4030;52.362;9.206;2023-08-24T00:54:33;1.58;;;1.00;;
7969;SDS011;4030;52.362;9.206;2023-08-24T00:57:00;1.40;;;1.10;;
7969;SDS011;4030;52.362;9.206;2023-08-24T00:59:26;1.65;;;1.10;;
7969;SDS011;4030;52.362;9.206;2023-08-24T01:01:52;1.30;;;1.10;;
7969;SDS011;4030;52.362;9.206;2023-08-24T01:04:18;1.95;;;1.25;;
7969;SDS011;4030;52.362;9.206;2023-08-24T01:06:44;1.45;;;1.20;;
7969;SDS011;4030;52.362;9.206;2023-08-24T01:09:09;2.30;;;1.30;;
7969;SDS011;4030;52.362;9.206;2023-08-24T01:11:49;3.33;;;1.40;;
7969;SDS011;4030;52.362;9.206;2023-08-24T01:14:41;1.92;;;1.48;;
7969;SDS011;4030;52.362;9.206;2023-08-24T01:17:15;2.10;;;1.20;;
7969;SDS011;4030;52.362;9.206;2023-08-24T01:19:48;1.58;;;1.10;;
7969;SDS011;4030;52.362;9.206;2023-08-24T01:25:04;1.98;;;1.30;;
7969;SDS011;4030;52.362;9.206;2023-08-24T01:27:52;1.77;;;1.20;;
7969;SDS011;4030;52.362;9.206;2023-08-24T01:30:18;1.10;;;1.00;;
7969;SDS011;4030;52.362;9.206;2023-08-24T01:32:45;1.70;;;1.33;;
7969;SDS011;4030;52.362;9.206;2023-08-24T01:35:10;1.98;;;1.30;;
7969;SDS011;4030;52.362;9.206;2023-08-24T01:37:36;2.50;;;1.15;;
7969;SDS011;4030;52.362;9.206;2023-08-24T01:40:07;1.88;;;1.17;;
7969;SDS011;4030;52.362;9.206;2023-08-24T01:42:47;1.42;;;1.27;;
7969;SDS011;4030;52.362;9.206;2023-08-24T01:45:22;1.80;;;1.30;;
7969;SDS011;4030;52.362;9.206;2023-08-24T01:47:53;1.65;;;1.20;;
7969;SDS011;4030;52.362;9.206;2023-08-24T01:50:20;2.00;;;1.08;;
7969;SDS011;4030;52.362;9.206;2023-08-24T01:52:46;1.30;;;1.20;;
7969;SDS011;4030;52.362;9.206;2023-08-24T01:55:12;1.30;;;1.17;;
7969;SDS011;4030;52.362;9.206;2023-08-24T01:57:38;3.13;;;1.20;;
7969;SDS011;4030;52.362;9.206;2023-08-24T02:00:04;1.20;;;1.10;;
7969;SDS011;4030;52.362;9.206;2023-08-24T02:02:31;1.95;;;1.15;;
7969;SDS011;4030;52.362;9.206;2023-08-24T02:04:59;1.52;;;1.20;;
7969;SDS011;4030;52.362;9.206;2023-08-24T02:07:25;2.13;;;1.30;;
7969;SDS011;4030;52.362;9.206;2023-08-24T02:09:50;1.08;;;1.00;;
7969;SDS011;4030;52.362;9.206;2023-08-24T02:12:16;2.05;;;1.10;;
7969;SDS011;4030;52.362;9.206;2023-08-24T02:14:41;1.23;;;1.10;;
7969;SDS011;4030;52.362;9.206;2023-08-24T02:17:07;2.15;;;1.10;;
7969;SDS011;4030;52.362;9.206;2023-08-24T02:19:33;1.38;;;1.10;;
7969;SDS011;4030;52.362;9.206;2023-08-24T02:21:59;1.83;;;1.30;;
7969;SDS011;4030;52.362;9.206;2023-08-24T02:24:25;1.98;;;1.15;;
7969;SDS011;4030;52.362;9.206;2023-08-24T02:26:50;1.50;;;1.15;;
7969;SDS011;4030;52.362;9.206;2023-08-24T02:29:16;2.38;;;1.10;;
7969;SDS011;4030;52.362;9.206;2023-08-24T02:31:43;1.92;;;1.10;;
7969;SDS011;4030;52.362;9.206;2023-08-24T02:34:08;1.80;;;1.20;;
7969;SDS011;4030;52.362;9.206;2023-08-24T02:36:34;2.83;;;1.23;;
7969;SDS011;4030;52.362;9.206;2023-08-24T02:39:00;1.35;;;1.20;;
7969;SDS011;4030;52.362;9.206;2023-08-24T02:41:26;1.80;;;1.10;;
7969;SDS011;4030;52.362;9.206;2023-08-24T02:43:52;1.60;;;1.20;;
7969;SDS011;4030;52.362;9.206;2023-08-24T02:46:18;2.88;;;1.20;;
7969;SDS011;4030;52.362;9.206;2023-08-24T02:48:46;1.58;;;1.00;;
7969;SDS011;4030;52.362;9.206;2023-08-24T02:51:12;2.08;;;1.20;;
7969;SDS011;4030;52.362;9.206;2023-08-24T02:53:38;1.67;;;1.20;;
7969;SDS011;4030;52.362;9.206;2023-08-24T02:56:04;1.30;;;1.20;;
7969;SDS011;4030;52.362;9.206;2023-08-24T02:58:30;3.00;;;1.10;;
7969;SDS011;4030;52.362;9.206;2023-08-24T03:00:56;1.52;;;1.20;;
7969;SDS011;4030;52.362;9.206;2023-08-24T03:03:23;1.13;;;1.02;;
7969;SDS011;4030;52.362;9.206;2023-08-24T03:05:57;1.50;;;1.20;;
7969;SDS011;4030;52.362;9.206;2023-08-24T03:08:25;1.20;;;1.05;;
7969;SDS011;4030;52.362;9.206;2023-08-24T03:10:51;1.98;;;1.13;;
7969;SDS011;4030;52.362;9.206;2023-08-24T03:13:17;1.95;;;1.17;;
7969;SDS011;4030;52.362;9.206;2023-08-24T03:15:43;1.23;;;1.02;;
7969;SDS011;4030;52.362;9.206;2023-08-24T03:18:12;1.45;;;1.10;;
7969;SDS011;4030;52.362;9.206;2023-08-24T03:20:39;1.77;;;1.10;;
7969;SDS011;4030;52.362;9.206;2023-08-24T03:23:05;2.33;;;1.25;;
7969;SDS011;4030;52.362;9.206;2023-08-24T03:25:35;2.50;;;1.15;;
7969;SDS011;4030;52.362;9.206;2023-08-24T03:28:02;1.20;;;0.90;;
7969;SDS011;4030;52.362;9.206;2023-08-24T03:30:28;1.77;;;1.10;;
7969;SDS011;4030;52.362;9.206;2023-08-24T03:32:54;2.05;;;1.30;;
7969;SDS011;4030;52.362;9.206;2023-08-24T03:35:20;1.63;;;1.13;;
7969;SDS011;4030;52.362;9.206;2023-08-24T03:37:46;1.60;;;1.10;;
7969;SDS011;4030;52.362;9.206;2023-08-24T03:40:11;1.45;;;1.05;;
7969;SDS011;4030;52.362;9.206;2023-08-24T03:42:38;1.60;;;1.20;;
7969;SDS011;4030;52.362;9.206;2023-08-24T03:45:04;2.85;;;1.10;;
7969;SDS011;4030;52.362;9.206;2023-08-24T03:47:30;1.15;;;1.00;;
7969;SDS011;4030;52.362;9.206;2023-08-24T03:49:56;1.10;;;1.00;;
7969;SDS011;4030;52.362;9.206;2023-08-24T03:52:22;1.25;;;1.10;;
7969;SDS011;4030;52.362;9.206;2023-08-24T03:54:48;1.20;;;1.10;;
7969;SDS011;4030;52.362;9.206;2023-08-24T03:57:14;2.08;;;1.10;;
7969;SDS011;4030;52.362;9.206;2023-08-24T03:59:40;1.65;;;1.13;;
7969;SDS011;4030;52.362;9.206;2023-08-24T04:02:06;1.20;;;1.00;;
7969;SDS011;4030;52.362;9.206;2023-08-24T04:04:32;1.63;;;1.13;;
7969;SDS011;4030;52.362;9.206;2023-08-24T04:06:58;2.05;;;1.20;;
7969;SDS011;4030;52.362;9.206;2023-08-24T04:09:25;1.85;;;1.00;;
7969;SDS011;4030;52.362;9.206;2023-08-24T04:11:51;2.33;;;1.10;;
7969;SDS011;4030;52.362;9.206;2023-08-24T04:14:16;1.10;;;1.00;;
7969;SDS011;4030;52.362;9.206;2023-08-24T04:16:42;1.55;;;1.10;;
7969;SDS011;4030;52.362;9.206;2023-08-24T04:19:08;1.08;;;0.90;;
7969;SDS011;4030;52.362;9.206;2023-08-24T04:21:34;1.30;;;1.00;;
7969;SDS011;4030;52.362;9.206;2023-08-24T04:24:00;0.90;;;0.90;;
7969;SDS011;4030;52.362;9.206;2023-08-24T04:26:25;1.48;;;1.00;;
7969;SDS011;4030;52.362;9.206;2023-08-24T04:28:51;1.27;;;1.10;;
7969;SDS011;4030;52.362;9.206;2023-08-24T04:31:17;2.15;;;1.10;;
7969;SDS011;4030;52.362;9.206;2023-08-24T04:33:42;2.17;;;1.10;;
7969;SDS011;4030;52.362;9.206;2023-08-24T04:36:08;1.00;;;0.82;;
7969;SDS011;4030;52.362;9.206;2023-08-24T04:38:34;1.83;;;0.90;;
7969;SDS011;4030;52.362;9.206;2023-08-24T04:41:00;1.10;;;1.00;;
7969;SDS011;4030;52.362;9.206;2023-08-24T04:43:25;1.10;;;1.00;;
7969;SDS011;4030;52.362;9.206;2023-08-24T04:45:52;2.28;;;1.00;;
7969;SDS011;4030;52.362;9.206;2023-08-24T04:48:22;1.02;;;0.95;;
7969;SDS011;4030;52.362;9.206;2023-08-24T04:50:50;1.05;;;0.80;;
7969;SDS011;4030;52.362;9.206;2023-08-24T04:53:17;0.82;;;0.80;;
7969;SDS011;4030;52.362;9.206;2023-08-24T04:55:44;3.80;;;0.93;;
7969;SDS011;4030;52.362;9.206;2023-08-24T04:58:11;1.38;;;0.93;;
7969;SDS011;4030;52.362;9.206;2023-08-24T05:00:40;2.13;;;1.00;;
7969;SDS011;4030;52.362;9.206;2023-08-24T05:03:06;1.30;;;0.93;;
7969;SDS011;4030;52.362;9.206;2023-08-24T05:05:33;1.77;;;1.00;;
7969;SDS011;4030;52.362;9.206;2023-08-24T05:08:00;0.95;;;0.90;;
7969;SDS011;4030;52.362;9.206;2023-08-24T05:10:31;1.10;;;0.95;;
7969;SDS011;4030;52.362;9.206;2023-08-24T05:12:59;1.48;;;0.90;;
7969;SDS011;4030;52.362;9.206;2023-08-24T05:15:25;2.53;;;1.20;;
7969;SDS011;4030;52.362;9.206;2023-08-24T05:17:51;1.17;;;1.00;;
7969;SDS011;4030;52.362;9.206;2023-08-24T05:20:21;1.42;;;0.90;;
7969;SDS011;4030;52.362;9.206;2023-08-24T05:22:47;2.45;;;0.90;;
7969;SDS011;4030;52.362;9.206;2023-08-24T05:25:13;1.50;;;1.00;;
7969;SDS011;4030;52.362;9.206;2023-08-24T05:27:41;1.67;;;1.10;;
7969;SDS011;4030;52.362;9.206;2023-08-24T05:30:07;1.30;;;1.10;;
7969;SDS011;4030;52.362;9.206;2023-08-24T05:32:34;1.50;;;1.20;;
7969;SDS011;4030;52.362;9.206;2023-08-24T05:35:04;1.73;;;1.13;;
7969;SDS011;4030;52.362;9.206;2023-08-24T05:37:33;1.05;;;0.90;;
7969;SDS011;4030;52.362;9.206;2023-08-24T05:40:00;2.50;;;1.10;;
7969;SDS011;4030;52.362;9.206;2023-08-24T05:42:27;1.60;;;1.15;;
7969;SDS011;4030;52.362;9.206;2023-08-24T05:44:52;1.17;;;1.00;;
7969;SDS011;4030;52.362;9.206;2023-08-24T05:47:18;1.67;;;1.10;;
7969;SDS011;4030;52.362;9.206;2023-08-24T05:49:44;1.40;;;1.10;;
7969;SDS011;4030;52.362;9.206;2023-08-24T05:52:10;1.42;;;1.13;;
7969;SDS011;4030;52.362;9.206;2023-08-24T05:54:36;1.63;;;1.10;;
7969;SDS011;4030;52.362;9.206;2023-08-24T05:57:03;1.17;;;1.08;;
7969;SDS011;4030;52.362;9.206;2023-08-24T05:59:30;1.50;;;1.10;;
7969;SDS011;4030;52.362;9.206;2023-08-24T06:01:58;4.15;;;1.20;;
7969;SDS011;4030;52.362;9.206;2023-08-24T06:04:23;1.65;;;1.30;;
7969;SDS011;4030;52.362;9.206;2023-08-24T06:06:49;2.45;;;1.10;;
7969;SDS011;4030;52.362;9.206;2023-08-24T06:09:15;2.40;;;1.30;;
7969;SDS011;4030;52.362;9.206;2023-08-24T06:11:40;3.53;;;1.30;;
7969;SDS011;4030;52.362;9.206;2023-08-24T06:14:06;1.65;;;1.30;;
7969;SDS011;4030;52.362;9.206;2023-08-24T06:16:32;1.80;;;1.20;;
7969;SDS011;4030;52.362;9.206;2023-08-24T06:18:57;1.58;;;1.20;;
7969;SDS011;4030;52.362;9.206;2023-08-24T06:21:23;1.95;;;1.40;;
7969;SDS011;4030;52.362;9.206;2023-08-24T06:23:49;2.60;;;1.33;;
7969;SDS011;4030;52.362;9.206;2023-08-24T06:26:15;1.48;;;1.15;;
7969;SDS011;4030;52.362;9.206;2023-08-24T06:28:41;2.45;;;1.50;;
7969;SDS011;4030;52.362;9.206;2023-08-24T06:31:07;2.60;;;1.30;;
7969;SDS011;4030;52.362;9.206;2023-08-24T06:33:33;1.73;;;1.30;;
7969;SDS011;4030;52.362;9.206;2023-08-24T06:35:59;4.10;;;1.25;;
7969;SDS011;4030;52.362;9.206;2023-08-24T06:38:26;1.52;;;1.27;;
7969;SDS011;4030;52.362;9.206;2023-08-24T06:40:52;1.80;;;1.17;;
7969;SDS011;4030;52.362;9.206;2023-08-24T06:43:17;1.38;;;1.10;;
7969;SDS011;4030;52.362;9.206;2023-08-24T06:45:43;1.40;;;1.30;;
7969;SDS011;4030;52.362;9.206;2023-08-24T06:48:09;1.42;;;1.20;;
7969;SDS011;4030;52.362;9.206;2023-08-24T06:50:35;3.58;;;1.23;;
7969;SDS011;4030;52.362;9.206;2023-08-24T06:53:02;3.30;;;1.38;;
7969;SDS011;4030;52.362;9.206;2023-08-24T06:55:29;1.85;;;1.38;;
7969;SDS011;4030;52.362;9.206;2023-08-24T06:57:55;1.90;;;1.30;;
7969;SDS011;4030;52.362;9.206;2023-08-24T07:00:20;1.63;;;1.30;;
7969;SDS011;4030;52.362;9.206;2023-08-24T07:02:47;1.92;;;1.33;;
7969;SDS011;4030;52.362;9.206;2023-08-24T07:05:13;1.67;;;1.25;;
7969;SDS011;4030;52.362;9.206;2023-08-24T07:07:39;2.78;;;1.50;;
7969;SDS011;4030;52.362;9.206;2023-08-24T07:10:09;2.42;;;1.30;;
7969;SDS011;4030;52.362;9.206;2023-08-24T07:12:34;1.90;;;1.38;;
7969;SDS011;4030;52.362;9.206;2023-08-24T07:15:00;2.33;;;1.35;;
7969;SDS011;4030;52.362;9.206;2023-08-24T07:17:27;1.70;;;1.50;;
7969;SDS011;4030;52.362;9.206;2023-08-24T07:19:53;2.55;;;1.52;;
7969;SDS011;4030;52.362;9.206;2023-08-24T07:22:19;1.85;;;1.27;;
7969;SDS011;4030;52.362;9.206;2023-08-24T07:24:45;2.63;;;1.88;;
7969;SDS011;4030;52.362;9.206;2023-08-24T07:27:11;3.40;;;2.40;;
7969;SDS011;4030;52.362;9.206;2023-08-24T07:29:37;3.47;;;2.30;;
7969;SDS011;4030;52.362;9.206;2023-08-24T07:32:03;5.78;;;2.15;;
7969;SDS011;4030;52.362;9.206;2023-08-24T07:34:28;3.30;;;2.60;;
7969;SDS011;4030;52.362;9.206;2023-08-24T07:36:54;3.30;;;2.13;;
7969;SDS011;4030;52.362;9.206;2023-08-24T07:39:20;3.53;;;2.53;;
7969;SDS011;4030;52.362;9.206;2023-08-24T07:41:46;3.60;;;2.47;;
7969;SDS011;4030;52.362;9.206;2023-08-24T07:44:11;4.40;;;2.85;;
7969;SDS011;4030;52.362;9.206;2023-08-24T07:46:38;5.03;;;2.72;;
7969;SDS011;4030;52.362;9.206;2023-08-24T07:49:04;4.40;;;2.63;;
7969;SDS011;4030;52.362;9.206;2023-08-24T07:51:32;4.65;;;2.80;;
7969;SDS011;4030;52.362;9.206;2023-08-24T07:53:58;6.63;;;3.08;;
7969;SDS011;4030;52.362;9.206;2023-08-24T07:56:25;3.17;;;2.67;;
7969;SDS011;4030;52.362;9.206;2023-08-24T07:58:51;3.53;;;2.53;;
7969;SDS011;4030;52.362;9.206;2023-08-24T08:01:16;3.97;;;2.92;;
7969;SDS011;4030;52.362;9.206;2023-08-24T08:03:42;2.53;;;2.33;;
7969;SDS011;4030;52.362;9.206;2023-08-24T08:06:08;3.22;;;2.58;;
7969;SDS011;4030;52.362;9.206;2023-08-24T08:08:33;4.68;;;2.30;;
7969;SDS011;4030;52.362;9.206;2023-08-24T08:11:00;3.75;;;2.60;;
7969;SDS011;4030;52.362;9.206;2023-08-24T08:13:27;4.32;;;2.60;;
7969;SDS011;4030;52.362;9.206;2023-08-24T08:16:00;3.30;;;2.38;;
7969;SDS011;4030;52.362;9.206;2023-08-24T08:18:32;5.30;;;2.65;;
7969;SDS011;4030;52.362;9.206;2023-08-24T08:20:59;3.50;;;2.20;;
7969;SDS011;4030;52.362;9.206;2023-08-24T08:23:25;4.47;;;2.72;;
7969;SDS011;4030;52.362;9.206;2023-08-24T08:25:51;6.80;;;2.53;;
7969;SDS011;4030;52.362;9.206;2023-08-24T08:28:17;2.83;;;2.17;;
7969;SDS011;4030;52.362;9.206;2023-08-24T08:30:43;3.80;;;2.35;;
7969;SDS011;4030;52.362;9.206;2023-08-24T08:33:09;4.25;;;2.15;;
7969;SDS011;4030;52.362;9.206;2023-08-24T08:35:37;3.63;;;2.15;;
7969;SDS011;4030;52.362;9.206;2023-08-24T08:38:05;4.55;;;2.60;;
7969;SDS011;4030;52.362;9.206;2023-08-24T08:40:32;3.90;;;2.40;;
7969;SDS011;4030;52.362;9.206;2023-08-24T08:43:02;3.78;;;2.55;;
7969;SDS011;4030;52.362;9.206;2023-08-24T08:45:28;3.03;;;2.03;;
7969;SDS011;4030;52.362;9.206;2023-08-24T08:47:57;4.32;;;2.47;;
7969;SDS011;4030;52.362;9.206;2023-08-24T08:50:26;5.05;;;2.60;;
7969;SDS011;4030;52.362;9.206;2023-08-24T08:52:52;3.28;;;2.17;;
7969;SDS011;4030;52.362;9.206;2023-08-24T08:55:18;3.50;;;2.33;;
7969;SDS011;4030;52.362;9.206;2023-08-24T08:57:48;4.80;;;2.20;;
7969;SDS011;4030;52.362;9.206;2023-08-24T09:00:14;3.80;;;2.35;;
7969;SDS011;4030;52.362;9.206;2023-08-24T09:02:45;3.95;;;2.20;;
7969;SDS011;4030;52.362;9.206;2023-08-24T09:05:13;2.88;;;2.15;;
7969;SDS011;4030;52.362;9.206;2023-08-24T09:07:40;3.22;;;2.00;;
7969;SDS011;4030;52.362;9.206;2023-08-24T09:10:06;3.65;;;2.42;;
7969;SDS011;4030;52.362;9.206;2023-08-24T09:12:33;4.50;;;2.50;;
7969;SDS011;4030;52.362;9.206;2023-08-24T09:14:59;4.25;;;2.17;;
7969;SDS011;4030;52.362;9.206;2023-08-24T09:17:29;4.75;;;2.70;;
7969;SDS011;4030;52.362;9.206;2023-08-24T09:19:57;2.35;;;2.00;;
7969;SDS011;4030;52.362;9.206;2023-08-24T09:22:25;4.25;;;2.38;;
7969;SDS011;4030;52.362;9.206;2023-08-24T09:24:51;5.88;;;2.30;;
7969;SDS011;4030;52.362;9.206;2023-08-24T09:27:18;4.50;;;2.30;;
7969;SDS011;4030;52.362;9.206;2023-08-24T09:29:48;3.05;;;2.50;;
7969;SDS011;4030;52.362;9.206;2023-08-24T09:32:27;4.38;;;2.63;;
7969;SDS011;4030;52.362;9.206;2023-08-24T09:34:55;3.13;;;2.30;;
7969;SDS011;4030;52.362;9.206;2023-08-24T09:37:21;4.32;;;2.50;;
7969;SDS011;4030;52.362;9.206;2023-08-24T09:39:47;4.55;;;2.30;;
7969;SDS011;4030;52.362;9.206;2023-08-24T09:42:13;2.95;;;1.90;;
7969;SDS011;4030;52.362;9.206;2023-08-24T09:44:45;3.25;;;2.20;;
7969;SDS011;4030;52.362;9.206;2023-08-24T09:47:11;4.13;;;2.30;;
7969;SDS011;4030;52.362;9.206;2023-08-24T09:49:37;5.57;;;2.40;;
7969;SDS011;4030;52.362;9.206;2023-08-24T09:52:06;3.58;;;2.20;;
7969;SDS011;4030;52.362;9.206;2023-08-24T09:54:35;3.42;;;2.00;;
7969;SDS011;4030;52.362;9.206;2023-08-24T09:57:03;4.22;;;2.40;;
7969;SDS011;4030;52.362;9.206;2023-08-24T09:59:32;5.55;;;2.58;;
7969;SDS011;4030;52.362;9.206;2023-08-24T10:02:00;2.92;;;2.00;;
7969;SDS011;4030;52.362;9.206;2023-08-24T10:04:32;4.03;;;2.38;;
7969;SDS011;4030;52.362;9.206;2023-08-24T10:07:08;2.70;;;2.05;;
7969;SDS011;4030;52.362;9.206;2023-08-24T10:09:44;5.47;;;2.40;;
7969;SDS011;4030;52.362;9.206;2023-08-24T10:12:18;3.78;;;2.13;;
7969;SDS011;4030;52.362;9.206;2023-08-24T10:14:53;4.10;;;2.40;;
7969;SDS011;4030;52.362;9.206;2023-08-24T10:17:32;3.53;;;2.50;;
7969;SDS011;4030;52.362;9.206;2023-08-24T10:19:59;4.55;;;2.50;;
7969;SDS011;4030;52.362;9.206;2023-08-24T10:22:27;3.65;;;2.13;;
7969;SDS011;4030;52.362;9.206;2023-08-24T10:24:54;4.35;;;2.28;;
7969;SDS011;4030;52.362;9.206;2023-08-24T10:27:22;2.95;;;2.42;;
7969;SDS011;4030;52.362;9.206;2023-08-24T10:29:49;4.72;;;2.53;;
7969;SDS011;4030;52.362;9.206;2023-08-24T10:32:15;2.67;;;1.92;;
7969;SDS011;4030;52.362;9.206;2023-08-24T10:34:41;3.85;;;2.00;;
7969;SDS011;4030;52.362;9.206;2023-08-24T10:37:08;5.13;;;2.10;;
7969;SDS011;4030;52.362;9.206;2023-08-24T10:39:38;3.50;;;1.95;;
7969;SDS011;4030;52.362;9.206;2023-08-24T10:42:13;3.53;;;2.05;;
7969;SDS011;4030;52.362;9.206;2023-08-24T10:44:43;4.38;;;2.15;;
7969;SDS011;4030;52.362;9.206;2023-08-24T10:47:15;3.25;;;1.90;;
7969;SDS011;4030;52.362;9.206;2023-08-24T10:52:30;3.42;;;2.13;;
7969;SDS011;4030;52.362;9.206;2023-08-24T10:55:03;3.72;;;1.95;;
7969;SDS011;4030;52.362;9.206;2023-08-24T10:57:51;5.00;;;1.90;;
7969;SDS011;4030;52.362;9.206;2023-08-24T11:00:28;4.25;;;1.90;;
7969;SDS011;4030;52.362;9.206;2023-08-24T11:02:55;5.00;;;2.47;;
7969;SDS011;4030;52.362;9.206;2023-08-24T11:05:22;3.92;;;2.20;;
7969;SDS011;4030;52.362;9.206;2023-08-24T11:10:44;4.13;;;2.00;;
7969;SDS011;4030;52.362;9.206;2023-08-24T11:15:45;3.30;;;1.77;;
7969;SDS011;4030;52.362;9.206;2023-08-24T11:20:55;3.35;;;1.98;;
7969;SDS011;4030;52.362;9.206;2023-08-24T11:23:28;4.32;;;2.28;;
7969;SDS011;4030;52.362;9.206;2023-08-24T11:25:55;3.20;;;2.00;;
7969;SDS011;4030;52.362;9.206;2023-08-24T11:28:24;5.38;;;2.00;;
7969;SDS011;4030;52.362;9.206;2023-08-24T11:30:53;2.75;;;1.95;;
7969;SDS011;4030;52.362;9.206;2023-08-24T11:33:30;3.92;;;2.10;;
7969;SDS011;4030;52.362;9.206;2023-08-24T11:35:57;3.70;;;1.98;;
7969;SDS011;4030;52.362;9.206;2023-08-24T11:38:25;4.43;;;1.80;;
7969;SDS011;4030;52.362;9.206;2023-08-24T11:41:00;3.88;;;2.00;;
7969;SDS011;4030;52.362;9.206;2023-08-24T11:43:26;2.83;;;1.67;;
7969;SDS011;4030;52.362;9.206;2023-08-24T11:45:53;2.72;;;1.67;;
7969;SDS011;4030;52.362;9.206;2023-08-24T11:48:23;3.67;;;1.90;;
7969;SDS011;4030;52.362;9.206;2023-08-24T11:50:54;4.47;;;2.03;;
7969;SDS011;4030;52.362;9.206;2023-08-24T11:53:21;2.55;;;1.90;;
7969;SDS011;4030;52.362;9.206;2023-08-24T11:55:49;4.47;;;1.98;;
7969;SDS011;4030;52.362;9.206;2023-08-24T11:58:17;3.35;;;1.75;;
7969;SDS011;4030;52.362;9.206;2023-08-24T12:00:43;2.55;;;1.83;;
7969;SDS011;4030;52.362;9.206;2023-08-24T12:03:11;1.80;;;1.60;;
7969;SDS011;4030;52.362;9.206;2023-08-24T12:05:37;2.42;;;1.80;;
7969;SDS011;4030;52.362;9.206;2023-08-24T12:08:03;4.45;;;1.88;;
7969;SDS011;4030;52.362;9.206;2023-08-24T12:10:30;3.55;;;1.75;;
7969;SDS011;4030;52.362;9.206;2023-08-24T12:13:01;3.22;;;1.70;;
7969;SDS011;4030;52.362;9.206;2023-08-24T12:15:29;3.55;;;1.85;;
7969;SDS011;4030;52.362;9.206;2023-08-24T12:17:55;4.65;;;2.03;;
7969;SDS011;4030;52.362;9.206;2023-08-24T12:20:21;2.78;;;1.70;;
7969;SDS011;4030;52.362;9.206;2023-08-24T12:22:54;3.05;;;1.92;;
7969;SDS011;4030;52.362;9.206;2023-08-24T12:25:23;4.43;;;1.77;;
7969;SDS011;4030;52.362;9.206;2023-08-24T12:27:50;2.95;;;1.70;;
7969;SDS011;4030;52.362;9.206;2023-08-24T12:30:18;3.10;;;1.73;;
7969;SDS011;4030;52.362;9.206;2023-08-24T12:32:48;4.57;;;1.90;;
7969;SDS011;4030;52.362;9.206;2023-08-24T12:35:17;4.88;;;1.90;;
7969;SDS011;4030;52.362;9.206;2023-08-24T12:37:42;2.40;;;1.70;;
7969;SDS011;4030;52.362;9.206;2023-08-24T12:40:09;2.35;;;1.58;;
7969;SDS011;4030;52.362;9.206;2023-08-24T12:42:35;2.65;;;1.63;;
7969;SDS011;4030;52.362;9.206;2023-08-24T12:45:01;4.55;;;1.90;;
7969;SDS011;4030;52.362;9.206;2023-08-24T12:47:29;4.45;;;1.88;;
7969;SDS011;4030;52.362;9.206;2023-08-24T12:49:55;2.65;;;1.80;;
7969;SDS011;4030;52.362;9.206;2023-08-24T12:52:22;5.03;;;1.55;;
7969;SDS011;4030;52.362;9.206;2023-08-24T12:54:49;3.58;;;1.80;;
7969;SDS011;4030;52.362;9.206;2023-08-24T12:57:15;3.13;;;1.80;;
7969;SDS011;4030;52.362;9.206;2023-08-24T12:59:41;3.22;;;1.70;;
7969;SDS011;4030;52.362;9.206;2023-08-24T13:02:06;3.58;;;1.77;;
7969;SDS011;4030;52.362;9.206;2023-08-24T13:04:32;3.13;;;1.80;;
7969;SDS011;4030;52.362;9.206;2023-08-24T13:06:58;4.70;;;1.83;;
7969;SDS011;4030;52.362;9.206;2023-08-24T13:09:24;4.68;;;1.80;;
7969;SDS011;4030;52.362;9.206;2023-08-24T13:11:50;3.40;;;1.60;;
7969;SDS011;4030;52.362;9.206;2023-08-24T13:14:16;3.83;;;1.98;;
7969;SDS011;4030;52.362;9.206;2023-08-24T13:16:42;3.72;;;2.00;;
7969;SDS011;4030;52.362;9.206;2023-08-24T13:19:07;2.38;;;1.80;;
7969;SDS011;4030;52.362;9.206;2023-08-24T13:21:33;4.25;;;1.83;;
7969;SDS011;4030;52.362;9.206;2023-08-24T13:23:59;2.90;;;1.75;;
7969;SDS011;4030;52.362;9.206;2023-08-24T13:26:25;3.95;;;2.05;;
7969;SDS011;4030;52.362;9.206;2023-08-24T13:28:50;3.72;;;1.80;;
7969;SDS011;4030;52.362;9.206;2023-08-24T13:31:17;3.08;;;1.90;;
7969;SDS011;4030;52.362;9.206;2023-08-24T13:33:44;2.67;;;1.90;;
7969;SDS011;4030;52.362;9.206;2023-08-24T13:36:10;2.22;;;1.83;;
7969;SDS011;4030;52.362;9.206;2023-08-24T13:38:36;2.78;;;1.73;;
7969;SDS011;4030;52.362;9.206;2023-08-24T13:41:02;1.77;;;1.50;;
7969;SDS011;4030;52.362;9.206;2023-08-24T13:43:28;2.40;;;1.70;;
7969;SDS011;4030;52.362;9.206;2023-08-24T13:45:54;3.58;;;1.75;;
7969;SDS011;4030;52.362;9.206;2023-08-24T13:48:20;3.65;;;2.00;;
7969;SDS011;4030;52.362;9.206;2023-08-24T13:50:49;3.88;;;1.70;;
7969;SDS011;4030;52.362;9.206;2023-08-24T13:53:19;2.15;;;1.63;;
7969;SDS011;4030;52.362;9.206;2023-08-24T13:55:45;3.10;;;1.88;;
7969;SDS011;4030;52.362;9.206;2023-08-24T13:58:10;2.55;;;1.92;;
7969;SDS011;4030;52.362;9.206;2023-08-24T14:00:36;4.35;;;1.88;;
7969;SDS011;4030;52.362;9.206;2023-08-24T14:03:02;2.55;;;2.00;;
7969;SDS011;4030;52.362;9.206;2023-08-24T14:05:29;3.03;;;1.80;;
7969;SDS011;4030;52.362;9.206;2023-08-24T14:07:55;4.07;;;1.85;;
7969;SDS011;4030;52.362;9.206;2023-08-24T14:10:20;3.05;;;1.77;;
7969;SDS011;4030;52.362;9.206;2023-08-24T14:12:46;2.20;;;1.90;;
7969;SDS011;4030;52.362;9.206;2023-08-24T14:15:12;2.85;;;1.80;;
7969;SDS011;4030;52.362;9.206;2023-08-24T14:17:38;2.42;;;1.65;;
7969;SDS011;4030;52.362;9.206;2023-08-24T14:20:04;2.72;;;1.58;;
7969;SDS011;4030;52.362;9.206;2023-08-24T14:22:30;2.65;;;1.50;;
7969;SDS011;4030;52.362;9.206;2023-08-24T14:24:56;2.25;;;1.60;;
7969;SDS011;4030;52.362;9.206;2023-08-24T14:27:22;5.32;;;1.70;;
7969;SDS011;4030;52.362;9.206;2023-08-24T14:29:48;2.78;;;1.70;;
7969;SDS011;4030;52.362;9.206;2023-08-24T14:32:13;1.98;;;1.50;;
7969;SDS011;4030;52.362;9.206;2023-08-24T14:34:39;3.70;;;1.55;;
7969;SDS011;4030;52.362;9.206;2023-08-24T14:37:05;2.55;;;1.70;;
7969;SDS011;4030;52.362;9.206;2023-08-24T14:39:30;2.90;;;1.70;;
7969;SDS011;4030;52.362;9.206;2023-08-24T14:41:56;4.40;;;1.92;;
7969;SDS011;4030;52.362;9.206;2023-08-24T14:44:22;3.67;;;1.75;;
7969;SDS011;4030;52.362;9.206;2023-08-24T14:46:47;3.08;;;1.85;;
7969;SDS011;4030;52.362;9.206;2023-08-24T14:49:13;3.33;;;1.70;;
7969;SDS011;4030;52.362;9.206;2023-08-24T14:51:43;3.28;;;1.80;;
7969;SDS011;4030;52.362;9.206;2023-08-24T14:54:10;2.67;;;1.70;;
7969;SDS011;4030;52.362;9.206;2023-08-24T14:56:39;3.25;;;1.80;;
7969;SDS011;4030;52.362;9.206;2023-08-24T14:59:04;2.80;;;1.80;;
7969;SDS011;4030;52.362;9.206;2023-08-24T15:01:30;3.10;;;2.03;;
7969;SDS011;4030;52.362;9.206;2023-08-24T15:03:56;2.10;;;1.70;;
7969;SDS011;4030;52.362;9.206;2023-08-24T15:06:22;3.13;;;1.85;;
7969;SDS011;4030;52.362;9.206;2023-08-24T15:08:48;3.25;;;1.70;;
7969;SDS011;4030;52.362;9.206;2023-08-24T15:11:14;2.95;;;2.00;;
7969;SDS011;4030;52.362;9.206;2023-08-24T15:13:43;5.28;;;1.85;;
7969;SDS011;4030;52.362;9.206;2023-08-24T15:16:08;3.00;;;1.83;;
7969;SDS011;4030;52.362;9.206;2023-08-24T15:18:35;3.88;;;2.03;;
7969;SDS011;4030;52.362;9.206;2023-08-24T15:21:01;4.57;;;1.80;;
7969;SDS011;4030;52.362;9.206;2023-08-24T15:23:28;3.22;;;1.88;;
7969;SDS011;4030;52.362;9.206;2023-08-24T15:25:59;2.70;;;2.10;;
7969;SDS011;4030;52.362;9.206;2023-08-24T15:28:26;3.17;;;2.05;;